createdAt,value
2023-02-12T00:01:41.035Z,74.01
2023-02-12T00:06:43.744Z,73.90
2023-02-12T00:11:46.395Z,74.00
2023-02-12T00:16:49.062Z,74.23
2023-02-12T00:21:51.737Z,73.93
2023-02-12T00:26:54.404Z,74.58
2023-02-12T00:31:57.260Z,74.39
2023-02-12T00:37:02.778Z,74.34
2023-02-12T00:42:05.718Z,74.32
2023-02-12T00:47:08.639Z,74.36
2023-02-12T00:52:11.821Z,74.38
2023-02-12T00:57:14.651Z,74.69
2023-02-12T01:02:18.526Z,74.37
2023-02-12T01:07:22.645Z,74.66
2023-02-12T01:12:25.481Z,74.21
2023-02-12T01:17:30.149Z,74.29
2023-02-12T01:22:34.833Z,74.33
2023-02-12T01:27:38.369Z,74.56
2023-02-12T01:32:41.108Z,74.61
2023-02-12T01:37:44.149Z,74.53
2023-02-12T01:42:46.818Z,74.40
2023-02-12T01:47:49.650Z,74.28
2023-02-12T01:52:55.451Z,74.16
2023-02-12T01:57:58.171Z,74.53
2023-02-12T02:03:02.680Z,74.42
2023-02-12T02:08:05.821Z,74.11
2023-02-12T02:13:27.298Z,74.24
2023-02-12T02:18:35.854Z,74.43
2023-02-12T02:24:15.028Z,74.73
2023-02-12T02:29:43.657Z,74.04
2023-02-12T02:34:54.302Z,74.28
2023-02-12T02:40:03.082Z,74.26
2023-02-12T02:45:30.512Z,73.83
2023-02-12T02:50:35.914Z,73.78
2023-02-12T02:55:43.866Z,73.80
2023-02-12T03:00:51.250Z,73.69
2023-02-12T03:05:57.289Z,73.54
2023-02-12T03:11:11.851Z,73.39
2023-02-12T03:16:31.464Z,73.99
2023-02-12T03:22:23.418Z,73.27
2023-02-12T03:27:44.967Z,72.42
2023-02-12T03:32:47.635Z,72.57
2023-02-12T03:38:12.460Z,72.79
2023-02-12T03:43:23.615Z,72.77
2023-02-12T03:48:55.503Z,72.93
2023-02-12T03:53:58.436Z,72.91
2023-02-12T03:59:01.312Z,72.34
2023-02-12T04:04:07.118Z,72.30
2023-02-12T04:09:11.036Z,72.65
2023-02-12T04:14:48.670Z,72.57
2023-02-12T04:20:00.457Z,72.14
2023-02-12T04:25:29.366Z,72.38
2023-02-12T04:30:44.015Z,72.62
2023-02-12T04:35:55.972Z,72.55
2023-02-12T04:40:59.075Z,72.55
2023-02-12T04:46:02.658Z,72.56
2023-02-12T04:51:05.628Z,72.32
2023-02-12T04:56:12.233Z,71.93
2023-02-12T05:01:15.370Z,71.62
2023-02-12T05:06:18.078Z,71.69
2023-02-12T05:11:20.795Z,71.57
2023-02-12T05:16:23.662Z,71.65
2023-02-12T05:21:26.440Z,71.21
2023-02-12T05:26:29.177Z,71.15
2023-02-12T05:31:31.980Z,71.13
2023-02-12T05:36:34.829Z,70.95
2023-02-12T05:41:37.734Z,71.17
2023-02-12T05:46:40.714Z,71.12
2023-02-12T05:51:43.466Z,70.76
2023-02-12T05:56:47.904Z,71.23
2023-02-12T06:01:51.993Z,71.15
2023-02-12T06:06:56.168Z,70.99
2023-02-12T06:11:58.806Z,70.84
2023-02-12T06:17:01.526Z,71.14
2023-02-12T06:22:04.323Z,71.25
2023-02-12T06:27:07.099Z,71.20
2023-02-12T06:32:09.837Z,70.87
2023-02-12T06:37:12.881Z,71.23
2023-02-12T06:42:15.683Z,71.10
2023-02-12T06:47:18.466Z,71.64
2023-02-12T06:52:21.968Z,71.29
2023-02-12T06:57:24.711Z,71.47
2023-02-12T07:02:27.558Z,71.54
2023-02-12T07:07:30.515Z,71.59
2023-02-12T07:12:34.371Z,71.60
2023-02-12T07:17:37.214Z,71.37
2023-02-12T07:22:40.048Z,71.66
2023-02-12T07:27:42.716Z,71.78
2023-02-12T07:32:45.472Z,71.36
2023-02-12T07:37:48.032Z,71.88
2023-02-12T07:42:56.107Z,71.65
2023-02-12T07:47:59.006Z,71.78
2023-02-12T07:53:02.077Z,71.42
2023-02-12T07:58:04.839Z,72.13
2023-02-12T08:03:07.558Z,71.80
2023-02-12T08:08:10.171Z,71.90
2023-02-12T08:13:12.795Z,71.79
2023-02-12T08:18:15.435Z,71.86
2023-02-12T08:23:18.128Z,71.68
2023-02-12T08:28:20.907Z,71.63
2023-02-12T08:33:23.806Z,71.89
2023-02-12T08:38:26.727Z,71.90
2023-02-12T08:43:29.571Z,71.77
2023-02-12T08:48:32.716Z,72.26
2023-02-12T08:53:35.767Z,71.85
2023-02-12T08:58:38.592Z,72.01
2023-02-12T09:03:41.276Z,72.33
2023-02-12T09:08:44.393Z,72.45
2023-02-12T09:13:48.083Z,72.28
2023-02-12T09:18:50.781Z,72.41
2023-02-12T09:23:53.550Z,72.58
2023-02-12T09:28:56.667Z,72.62
2023-02-12T09:34:05.135Z,72.72
2023-02-12T09:39:07.853Z,72.90
2023-02-12T09:44:32.267Z,72.64
2023-02-12T09:49:47.868Z,72.91
2023-02-12T09:54:51.169Z,73.01
2023-02-12T09:59:59.027Z,72.88
2023-02-12T10:05:02.597Z,72.69
2023-02-12T10:10:11.367Z,72.98
2023-02-12T10:15:33.239Z,73.22
2023-02-12T10:20:57.457Z,73.19
2023-02-12T10:26:09.755Z,73.29
2023-02-12T10:31:32.316Z,73.74
2023-02-12T10:36:57.015Z,73.88
2023-02-12T10:42:35.264Z,73.72
2023-02-12T10:47:37.874Z,74.30
2023-02-12T10:53:03.671Z,74.23
2023-02-12T10:58:19.169Z,74.73
2023-02-12T11:03:24.453Z,74.69
2023-02-12T11:08:30.226Z,75.04
2023-02-12T11:13:33.012Z,74.92
2023-02-12T11:18:37.034Z,75.07
2023-02-12T11:23:44.303Z,75.40
2023-02-12T11:29:01.566Z,75.54
2023-02-12T11:34:20.127Z,75.06
2023-02-12T11:39:31.004Z,75.33
2023-02-12T11:44:38.492Z,74.88
2023-02-12T11:49:51.566Z,75.12
2023-02-12T11:54:57.627Z,75.13
2023-02-12T12:00:02.242Z,74.92
2023-02-12T12:05:13.804Z,74.79
2023-02-12T12:10:32.209Z,75.20
2023-02-12T12:16:01.881Z,75.03
2023-02-12T12:21:25.623Z,75.06
2023-02-12T12:26:30.865Z,75.13
2023-02-12T12:31:39.646Z,74.95
2023-02-12T12:37:20.003Z,75.31
2023-02-12T12:42:53.730Z,75.68
2023-02-12T12:48:16.426Z,75.42
2023-02-12T12:53:31.133Z,75.80
2023-02-12T12:59:24.523Z,75.82
2023-02-12T13:04:32.099Z,75.53
2023-02-12T13:09:49.014Z,75.69
2023-02-12T13:15:07.230Z,76.17
2023-02-12T13:20:30.177Z,75.99
2023-02-12T13:26:15.817Z,76.04
2023-02-12T13:31:33.053Z,75.90
2023-02-12T13:36:37.741Z,76.14
2023-02-12T13:41:40.869Z,76.09
2023-02-12T13:47:01.057Z,76.31
2023-02-12T13:52:07.525Z,76.61
2023-02-12T13:57:15.048Z,76.94
2023-02-12T14:02:39.205Z,76.65
2023-02-12T14:07:53.162Z,76.60
2023-02-12T14:12:56.883Z,76.23
2023-02-12T14:18:02.605Z,76.51
2023-02-12T14:23:44.157Z,76.50
2023-02-12T14:28:57.228Z,76.33
2023-02-12T14:34:22.498Z,76.20
2023-02-12T14:39:25.311Z,76.81
2023-02-12T14:44:29.343Z,76.41
2023-02-12T14:49:37.192Z,76.82
2023-02-12T14:54:49.568Z,76.25
2023-02-12T15:00:02.760Z,76.30
2023-02-12T15:05:21.185Z,76.26
2023-02-12T15:10:28.275Z,76.56
2023-02-12T15:15:38.076Z,76.68
2023-02-12T15:20:52.227Z,76.86
2023-02-12T15:25:55.271Z,76.82
2023-02-12T15:30:58.227Z,76.25
2023-02-12T15:36:02.954Z,76.61
2023-02-12T15:41:06.890Z,76.11
2023-02-12T15:46:17.279Z,76.19
2023-02-12T15:51:35.249Z,76.19
2023-02-12T15:56:41.228Z,75.78
2023-02-12T16:01:54.190Z,76.26
2023-02-12T16:06:57.251Z,76.00
2023-02-12T16:12:03.352Z,75.52
2023-02-12T16:17:22.404Z,74.51
2023-02-12T16:22:31.321Z,75.01
2023-02-12T16:27:35.321Z,74.54
2023-02-12T16:32:46.842Z,74.80
2023-02-12T16:37:52.181Z,74.70
2023-02-12T16:42:54.826Z,74.53
2023-02-12T16:48:09.454Z,74.65
2023-02-12T16:53:35.915Z,75.10
2023-02-12T16:58:38.810Z,75.42
2023-02-12T17:03:41.813Z,75.06
2023-02-12T17:08:44.639Z,75.03
2023-02-12T17:13:49.080Z,75.08
2023-02-12T17:18:51.790Z,75.01
2023-02-12T17:23:54.832Z,75.25
2023-02-12T17:29:05.640Z,75.38
2023-02-12T17:34:08.581Z,75.08
2023-02-12T17:39:12.870Z,75.43
2023-02-12T17:44:16.667Z,75.16
2023-02-12T17:49:19.538Z,75.35
2023-02-12T17:54:22.182Z,75.39
2023-02-12T17:59:25.042Z,75.04
2023-02-12T18:04:27.989Z,75.04
2023-02-12T18:09:31.950Z,75.02
2023-02-12T18:14:34.726Z,75.09
2023-02-12T18:19:37.576Z,75.17
2023-02-12T18:24:41.677Z,74.88
2023-02-12T18:29:44.712Z,74.72
2023-02-12T18:34:47.447Z,74.93
2023-02-12T18:39:50.155Z,74.74
2023-02-12T18:44:52.890Z,74.93
2023-02-12T18:49:58.243Z,74.96
2023-02-12T18:55:00.926Z,74.81
2023-02-12T19:00:05.317Z,74.75
2023-02-12T19:05:10.524Z,75.04
2023-02-12T19:10:13.932Z,75.09
2023-02-12T19:15:17.801Z,75.19
2023-02-12T19:20:20.332Z,75.44
2023-02-12T19:25:22.982Z,75.29
2023-02-12T19:30:25.642Z,75.27
2023-02-12T19:35:28.432Z,75.55
2023-02-12T19:40:32.484Z,75.46
2023-02-12T19:45:34.986Z,75.56
2023-02-12T19:50:37.632Z,75.28
2023-02-12T19:55:40.276Z,75.67
2023-02-12T20:00:43.289Z,75.66
2023-02-12T20:05:52.205Z,75.70
2023-02-12T20:10:55.247Z,75.41
2023-02-12T20:16:05.457Z,75.24
2023-02-12T20:21:16.659Z,75.54
2023-02-12T20:26:20.194Z,75.26
2023-02-12T20:31:29.273Z,75.65
2023-02-12T20:36:34.383Z,75.32
2023-02-12T20:41:37.606Z,75.59
2023-02-12T20:46:42.344Z,75.71
2023-02-12T20:51:46.001Z,75.57
2023-02-12T20:56:50.126Z,75.45
2023-02-12T21:01:52.885Z,75.03
2023-02-12T21:06:55.578Z,75.40
2023-02-12T21:11:59.494Z,75.25
2023-02-12T21:17:02.292Z,75.10
2023-02-12T21:22:04.946Z,75.27
2023-02-12T21:27:07.865Z,75.73
2023-02-12T21:32:10.923Z,75.57
2023-02-12T21:37:13.818Z,75.66
2023-02-12T21:42:16.564Z,75.70
2023-02-12T21:47:19.502Z,75.53
2023-02-12T21:52:22.114Z,75.42
2023-02-12T21:57:24.887Z,75.28
2023-02-12T22:02:27.588Z,75.33
2023-02-12T22:07:30.247Z,75.32
2023-02-12T22:12:35.084Z,75.21
2023-02-12T22:17:37.801Z,74.77
2023-02-12T22:22:40.837Z,75.22
2023-02-12T22:27:43.483Z,74.88
2023-02-12T22:32:46.411Z,74.60
2023-02-12T22:37:49.324Z,74.54
2023-02-12T22:42:52.025Z,74.52
2023-02-12T22:47:54.780Z,74.58
2023-02-12T22:52:57.484Z,74.44
2023-02-12T22:58:00.195Z,74.57
2023-02-12T23:03:02.790Z,74.23
2023-02-12T23:08:06.525Z,74.11
2023-02-12T23:13:10.453Z,74.33
2023-02-12T23:18:13.146Z,74.75
2023-02-12T23:23:16.365Z,74.55
2023-02-12T23:28:19.591Z,74.07
2023-02-12T23:33:23.143Z,74.23
2023-02-12T23:38:26.021Z,74.18
2023-02-12T23:43:28.883Z,74.34
2023-02-12T23:48:31.645Z,74.12
2023-02-12T23:53:34.511Z,74.29
2023-02-12T23:58:37.346Z,74.44
